createdAt,value
2023-04-26T00:05:42.950Z,220.47
2023-04-26T00:15:46.315Z,222.10
2023-04-26T00:25:51.051Z,219.40
2023-04-26T00:35:54.494Z,218.30
2023-04-26T00:45:59.847Z,214.40
2023-04-26T00:56:03.722Z,215.87
2023-04-26T01:06:08.826Z,216.53
2023-04-26T01:16:15.249Z,216.70
2023-04-26T01:26:20.308Z,218.17
2023-04-26T01:36:23.688Z,215.77
2023-04-26T01:46:30.042Z,214.13
2023-04-26T01:56:33.435Z,214.93
2023-04-26T02:06:39.300Z,214.07
2023-04-26T02:16:43.528Z,210.93
2023-04-26T02:26:48.315Z,210.63
2023-04-26T02:36:52.172Z,210.27
2023-04-26T02:46:56.990Z,226.33
2023-04-26T02:57:01.056Z,223.30
2023-04-26T03:07:06.254Z,212.17
2023-04-26T03:17:10.610Z,214.73
2023-04-26T03:27:15.563Z,215.63
2023-04-26T03:37:18.992Z,213.90
2023-04-26T03:47:31.154Z,209.40
2023-04-26T03:57:34.733Z,207.53
2023-04-26T04:07:39.703Z,208.47
2023-04-26T04:17:43.356Z,212.73
2023-04-26T04:27:50.278Z,209.87
2023-04-26T04:37:54.145Z,217.40
2023-04-26T04:47:59.152Z,227.97
2023-04-26T04:58:04.193Z,210.00
2023-04-26T05:08:10.430Z,211.43
2023-04-26T05:18:14.085Z,218.63
2023-04-26T05:28:19.587Z,213.40
2023-04-26T05:38:41.432Z,212.10
2023-04-26T05:48:46.575Z,214.93
2023-04-26T05:58:50.799Z,216.23
2023-04-26T06:08:55.892Z,221.23
2023-04-26T06:18:59.374Z,218.23
2023-04-26T06:29:07.321Z,224.63
2023-04-26T06:39:11.004Z,222.97
2023-04-26T06:49:17.280Z,229.80
2023-04-26T06:59:20.666Z,226.37
2023-04-26T07:09:25.899Z,229.20
2023-04-26T07:19:29.428Z,223.17
2023-04-26T07:29:34.137Z,228.03
2023-04-26T07:39:37.523Z,228.30
2023-04-26T07:49:42.636Z,221.60
2023-04-26T07:59:46.082Z,224.10
2023-04-26T08:09:50.787Z,226.70
2023-04-26T08:19:54.443Z,230.20
2023-04-26T08:30:00.396Z,220.03
2023-04-26T08:40:04.625Z,217.33
2023-04-26T08:50:12.452Z,222.77
2023-04-26T09:00:18.159Z,216.63
2023-04-26T09:10:23.596Z,217.97
2023-04-26T09:20:29.005Z,220.13
2023-04-26T09:30:40.602Z,226.03
2023-04-26T09:40:46.184Z,218.70
2023-04-26T09:50:53.512Z,221.60
2023-04-26T10:00:58.321Z,229.20
2023-04-26T10:11:05.073Z,223.27
2023-04-26T10:21:20.038Z,216.43
2023-04-26T10:31:24.884Z,218.90
2023-04-26T10:41:34.427Z,215.50
2023-04-26T10:51:39.240Z,220.70
2023-04-26T11:01:43.176Z,217.03
2023-04-26T11:11:54.465Z,216.00
2023-04-26T11:22:00.245Z,222.53
2023-04-26T11:32:05.958Z,220.07
2023-04-26T11:42:11.031Z,220.20
2023-04-26T11:52:16.282Z,220.77
2023-04-26T12:02:20.727Z,215.90
2023-04-26T12:12:25.537Z,228.30
2023-04-26T12:22:28.960Z,230.48
2023-04-26T12:32:33.735Z,222.27
2023-04-26T12:42:37.290Z,232.88
2023-04-26T12:52:43.453Z,220.75
2023-04-26T13:02:47.540Z,223.18
2023-04-26T13:12:53.906Z,231.93
2023-04-26T13:22:57.256Z,230.73
2023-04-26T13:33:02.264Z,227.10
2023-04-26T13:43:05.751Z,228.70
2023-04-26T13:53:10.548Z,222.73
2023-04-26T14:03:14.060Z,230.90
2023-04-26T14:13:18.928Z,230.17
2023-04-26T14:23:22.427Z,222.93
2023-04-26T14:33:27.203Z,218.07
2023-04-26T14:43:30.565Z,217.33
2023-04-26T14:53:35.395Z,218.47
2023-04-26T15:03:39.432Z,222.47
2023-04-26T15:13:45.351Z,219.77
2023-04-26T15:23:49.031Z,217.97
2023-04-26T15:33:56.481Z,215.90
2023-04-26T15:44:00.003Z,219.30
2023-04-26T15:54:04.937Z,219.43
2023-04-26T16:04:08.953Z,223.17
2023-04-26T16:14:13.780Z,220.43
2023-04-26T16:24:17.255Z,218.63
2023-04-26T16:34:22.052Z,224.93
2023-04-26T16:44:25.746Z,220.93
2023-04-26T16:54:30.458Z,215.27
2023-04-26T17:04:35.033Z,217.00
2023-04-26T17:14:41.064Z,219.87
2023-04-26T17:24:44.983Z,221.97
2023-04-26T17:34:49.778Z,213.43
2023-04-26T17:44:53.195Z,213.27
2023-04-26T17:54:58.068Z,211.00
2023-04-26T18:05:01.741Z,210.13
2023-04-26T18:15:08.668Z,213.33
2023-04-26T18:25:12.123Z,219.00
2023-04-26T18:35:17.143Z,211.17
2023-04-26T18:45:20.616Z,211.23
2023-04-26T18:55:26.158Z,216.47
2023-04-26T19:05:29.675Z,220.03
2023-04-26T19:15:34.447Z,214.00
2023-04-26T19:25:37.847Z,211.50
2023-04-26T19:35:43.659Z,212.43
2023-04-26T19:45:47.732Z,210.43
2023-04-26T19:55:52.550Z,207.53
2023-04-26T20:05:56.128Z,210.43
2023-04-26T20:16:00.881Z,207.57
2023-04-26T20:26:04.538Z,209.13
2023-04-26T20:36:09.673Z,211.83
2023-04-26T20:46:13.136Z,220.83
2023-04-26T20:56:17.881Z,210.57
2023-04-26T21:06:21.285Z,212.60
2023-04-26T21:16:26.234Z,209.03
2023-04-26T21:26:29.674Z,210.83
2023-04-26T21:36:34.474Z,211.83
2023-04-26T21:46:37.858Z,209.50
2023-04-26T21:56:43.691Z,222.93
2023-04-26T22:06:47.076Z,216.27
2023-04-26T22:16:51.855Z,218.60
2023-04-26T22:26:55.219Z,212.37
2023-04-26T22:37:13.009Z,226.20
2023-04-26T22:47:24.005Z,220.10
2023-04-26T22:57:29.854Z,228.27
2023-04-26T23:07:34.912Z,218.63
2023-04-26T23:17:41.878Z,222.47
2023-04-26T23:27:45.342Z,219.30
2023-04-26T23:37:52.429Z,219.40
2023-04-26T23:47:55.918Z,226.00
2023-04-26T23:58:00.733Z,227.00
